sensor_id;sensor_type;location;lat;lon;timestamp;pressure;altitude;pressure_sealevel;temperature
76007;BMP280;64699;0.000;0.000;2024-01-07T00:02:06;100612.97;;;19.13
76007;BMP280;64699;0.000;0.000;2024-01-07T00:04:31;100618.25;;;19.11
76007;BMP280;64699;0.000;0.000;2024-01-07T00:06:59;100615.72;;;19.13
76007;BMP280;64699;0.000;0.000;2024-01-07T00:09:24;100622.50;;;19.12
76007;BMP280;64699;0.000;0.000;2024-01-07T00:11:49;100619.97;;;19.14
76007;BMP280;64699;0.000;0.000;2024-01-07T00:14:15;100625.75;;;19.11
76007;BMP280;64699;0.000;0.000;2024-01-07T00:16:41;100622.50;;;19.12
76007;BMP280;64699;0.000;0.000;2024-01-07T00:19:06;100628.53;;;19.11
76007;BMP280;64699;0.000;0.000;2024-01-07T00:21:32;100623.78;;;19.11
76007;BMP280;64699;0.000;0.000;2024-01-07T00:23:57;100625.06;;;19.10
76007;BMP280;64699;0.000;0.000;2024-01-07T00:26:22;100635.31;;;19.10
76007;BMP280;64699;0.000;0.000;2024-01-07T00:28:47;100633.09;;;19.08
76007;BMP280;64699;0.000;0.000;2024-01-07T00:31:13;100630.31;;;19.08
76007;BMP280;64699;0.000;0.000;2024-01-07T00:33:38;100633.84;;;19.09
76007;BMP280;64699;0.000;0.000;2024-01-07T00:36:03;100633.09;;;19.08
76007;BMP280;64699;0.000;0.000;2024-01-07T00:38:28;100632.84;;;19.06
76007;BMP280;64699;0.000;0.000;2024-01-07T00:40:54;100641.13;;;19.06
76007;BMP280;64699;0.000;0.000;2024-01-07T00:43:19;100642.59;;;19.07
76007;BMP280;64699;0.000;0.000;2024-01-07T00:45:44;100638.59;;;19.08
76007;BMP280;64699;0.000;0.000;2024-01-07T00:48:09;100638.59;;;19.08
76007;BMP280;64699;0.000;0.000;2024-01-07T00:50:35;100644.09;;;19.08
76007;BMP280;64699;0.000;0.000;2024-01-07T00:53:00;100644.09;;;19.08
76007;BMP280;64699;0.000;0.000;2024-01-07T00:55:25;100651.09;;;19.09
76007;BMP280;64699;0.000;0.000;2024-01-07T00:57:50;100649.59;;;19.08
76007;BMP280;64699;0.000;0.000;2024-01-07T01:00:16;100648.13;;;19.07
76007;BMP280;64699;0.000;0.000;2024-01-07T01:02:41;100659.88;;;19.08
76007;BMP280;64699;0.000;0.000;2024-01-07T01:05:06;100660.63;;;19.08
76007;BMP280;64699;0.000;0.000;2024-01-07T01:07:32;100648.88;;;19.08
76007;BMP280;64699;0.000;0.000;2024-01-07T01:09:57;100655.13;;;19.08
76007;BMP280;64699;0.000;0.000;2024-01-07T01:12:22;100666.13;;;19.08
76007;BMP280;64699;0.000;0.000;2024-01-07T01:14:48;100654.59;;;19.10
76007;BMP280;64699;0.000;0.000;2024-01-07T01:17:13;100658.63;;;19.09
76007;BMP280;64699;0.000;0.000;2024-01-07T01:19:38;100654.59;;;19.10
76007;BMP280;64699;0.000;0.000;2024-01-07T01:22:03;100653.63;;;19.07
76007;BMP280;64699;0.000;0.000;2024-01-07T01:24:28;100664.31;;;19.11
76007;BMP280;64699;0.000;0.000;2024-01-07T01:26:54;100659.13;;;19.07
76007;BMP280;64699;0.000;0.000;2024-01-07T01:29:19;100655.13;;;19.08
76007;BMP280;64699;0.000;0.000;2024-01-07T01:31:44;100655.13;;;19.08
76007;BMP280;64699;0.000;0.000;2024-01-07T01:34:09;100667.41;;;19.07
76007;BMP280;64699;0.000;0.000;2024-01-07T01:36:34;100668.38;;;19.10
76007;BMP280;64699;0.000;0.000;2024-01-07T01:39:00;100664.84;;;19.09
76007;BMP280;64699;0.000;0.000;2024-01-07T01:41:25;100665.06;;;19.11
76007;BMP280;64699;0.000;0.000;2024-01-07T01:43:50;100654.78;;;19.12
76007;BMP280;64699;0.000;0.000;2024-01-07T01:46:16;100668.06;;;19.13
76007;BMP280;64699;0.000;0.000;2024-01-07T01:48:41;100664.03;;;19.14
76007;BMP280;64699;0.000;0.000;2024-01-07T01:51:06;100657.03;;;19.13
76007;BMP280;64699;0.000;0.000;2024-01-07T01:53:32;100665.50;;;19.15
76007;BMP280;64699;0.000;0.000;2024-01-07T01:55:58;100657.22;;;19.15
76007;BMP280;64699;0.000;0.000;2024-01-07T01:58:25;100664.22;;;19.16
76007;BMP280;64699;0.000;0.000;2024-01-07T02:00:50;100662.22;;;19.17
76007;BMP280;64699;0.000;0.000;2024-01-07T02:03:16;100660.22;;;19.17
76007;BMP280;64699;0.000;0.000;2024-01-07T02:05:41;100660.22;;;19.17
76007;BMP280;64699;0.000;0.000;2024-01-07T02:08:06;100661.47;;;19.16
76007;BMP280;64699;0.000;0.000;2024-01-07T02:10:32;100659.47;;;19.17
76007;BMP280;64699;0.000;0.000;2024-01-07T02:13:01;100658.97;;;19.18
76007;BMP280;64699;0.000;0.000;2024-01-07T02:15:26;100658.97;;;19.18
76007;BMP280;64699;0.000;0.000;2024-01-07T02:17:51;100660.22;;;19.17
76007;BMP280;64699;0.000;0.000;2024-01-07T02:20:17;100665.19;;;19.18
76007;BMP280;64699;0.000;0.000;2024-01-07T02:22:42;100652.69;;;19.17
76007;BMP280;64699;0.000;0.000;2024-01-07T02:25:07;100653.47;;;19.18
76007;BMP280;64699;0.000;0.000;2024-01-07T02:27:33;100649.22;;;19.17
76007;BMP280;64699;0.000;0.000;2024-01-07T02:29:58;100647.19;;;19.17
76007;BMP280;64699;0.000;0.000;2024-01-07T02:32:23;100646.47;;;19.17
76007;BMP280;64699;0.000;0.000;2024-01-07T02:34:49;100637.94;;;19.15
76007;BMP280;64699;0.000;0.000;2024-01-07T02:37:14;100641.47;;;19.16
76007;BMP280;64699;0.000;0.000;2024-01-07T02:39:39;100650.44;;;19.16
76007;BMP280;64699;0.000;0.000;2024-01-07T02:42:04;100651.72;;;19.15
76007;BMP280;64699;0.000;0.000;2024-01-07T02:44:30;100642.00;;;19.14
76007;BMP280;64699;0.000;0.000;2024-01-07T02:46:55;100644.75;;;19.14
76007;BMP280;64699;0.000;0.000;2024-01-07T02:49:20;100643.47;;;19.15
76007;BMP280;64699;0.000;0.000;2024-01-07T02:51:45;100650.25;;;19.14
76007;BMP280;64699;0.000;0.000;2024-01-07T02:54:14;100646.03;;;19.13
76007;BMP280;64699;0.000;0.000;2024-01-07T02:56:39;100646.03;;;19.13
76007;BMP280;64699;0.000;0.000;2024-01-07T02:59:04;100647.28;;;19.12
76007;BMP280;64699;0.000;0.000;2024-01-07T03:01:29;100640.50;;;19.13
76007;BMP280;64699;0.000;0.000;2024-01-07T03:03:55;100660.31;;;19.12
76007;BMP280;64699;0.000;0.000;2024-01-07T03:06:20;100654.28;;;19.13
76007;BMP280;64699;0.000;0.000;2024-01-07T03:08:45;100653.53;;;19.13
76007;BMP280;64699;0.000;0.000;2024-01-07T03:11:10;100658.13;;;19.10
76007;BMP280;64699;0.000;0.000;2024-01-07T03:13:36;100645.81;;;19.11
76007;BMP280;64699;0.000;0.000;2024-01-07T03:16:01;100650.03;;;19.12
76007;BMP280;64699;0.000;0.000;2024-01-07T03:18:27;100648.56;;;19.11
76007;BMP280;64699;0.000;0.000;2024-01-07T03:20:52;100639.53;;;19.11
76007;BMP280;64699;0.000;0.000;2024-01-07T03:23:17;100648.56;;;19.11
76007;BMP280;64699;0.000;0.000;2024-01-07T03:25:43;100643.78;;;19.12
76007;BMP280;64699;0.000;0.000;2024-01-07T03:28:09;100646.34;;;19.10
76007;BMP280;64699;0.000;0.000;2024-01-07T03:30:34;100648.56;;;19.11
76007;BMP280;64699;0.000;0.000;2024-01-07T03:32:59;100645.03;;;19.11
76007;BMP280;64699;0.000;0.000;2024-01-07T03:35:24;100648.56;;;19.11
76007;BMP280;64699;0.000;0.000;2024-01-07T03:37:50;100642.84;;;19.09
76007;BMP280;64699;0.000;0.000;2024-01-07T03:40:15;100645.59;;;19.09
76007;BMP280;64699;0.000;0.000;2024-01-07T03:42:40;100652.59;;;19.10
76007;BMP280;64699;0.000;0.000;2024-01-07T03:45:05;100655.88;;;19.09
76007;BMP280;64699;0.000;0.000;2024-01-07T03:47:31;100645.59;;;19.09
76007;BMP280;64699;0.000;0.000;2024-01-07T03:49:56;100657.34;;;19.10
76007;BMP280;64699;0.000;0.000;2024-01-07T03:52:21;100659.56;;;19.11
76007;BMP280;64699;0.000;0.000;2024-01-07T03:54:47;100656.59;;;19.09
76007;BMP280;64699;0.000;0.000;2024-01-07T03:57:12;100658.13;;;19.10
76007;BMP280;64699;0.000;0.000;2024-01-07T03:59:38;100662.09;;;19.09
76007;BMP280;64699;0.000;0.000;2024-01-07T04:02:03;100651.09;;;19.09
76007;BMP280;64699;0.000;0.000;2024-01-07T04:04:28;100647.59;;;19.09
76007;BMP280;64699;0.000;0.000;2024-01-07T04:06:53;100659.34;;;19.09
76007;BMP280;64699;0.000;0.000;2024-01-07T04:09:19;100659.34;;;19.09
76007;BMP280;64699;0.000;0.000;2024-01-07T04:11:44;100664.31;;;19.11
76007;BMP280;64699;0.000;0.000;2024-01-07T04:14:09;100657.88;;;19.08
76007;BMP280;64699;0.000;0.000;2024-01-07T04:16:34;100661.38;;;19.09
76007;BMP280;64699;0.000;0.000;2024-01-07T04:19:00;100664.63;;;19.07
76007;BMP280;64699;0.000;0.000;2024-01-07T04:21:25;100662.09;;;19.09
76007;BMP280;64699;0.000;0.000;2024-01-07T04:23:50;100671.63;;;19.08
76007;BMP280;64699;0.000;0.000;2024-01-07T04:26:16;100663.16;;;19.06
76007;BMP280;64699;0.000;0.000;2024-01-07T04:28:41;100666.13;;;19.08
76007;BMP280;64699;0.000;0.000;2024-01-07T04:31:07;100660.41;;;19.06
76007;BMP280;64699;0.000;0.000;2024-01-07T04:33:32;100662.44;;;19.06
76007;BMP280;64699;0.000;0.000;2024-01-07T04:35:57;100663.16;;;19.06
76007;BMP280;64699;0.000;0.000;2024-01-07T04:38:24;100667.19;;;19.05
76007;BMP280;64699;0.000;0.000;2024-01-07T04:40:50;100672.72;;;19.05
76007;BMP280;64699;0.000;0.000;2024-01-07T04:43:15;100671.22;;;19.04
76007;BMP280;64699;0.000;0.000;2024-01-07T04:45:40;100675.47;;;19.05
76007;BMP280;64699;0.000;0.000;2024-01-07T04:48:05;100670.47;;;19.04
76007;BMP280;64699;0.000;0.000;2024-01-07T04:50:31;100672.50;;;19.03
76007;BMP280;64699;0.000;0.000;2024-01-07T04:52:56;100678.72;;;19.04
76007;BMP280;64699;0.000;0.000;2024-01-07T04:55:21;100677.47;;;19.05
76007;BMP280;64699;0.000;0.000;2024-01-07T04:57:46;100680.22;;;19.05
76007;BMP280;64699;0.000;0.000;2024-01-07T05:00:12;100675.47;;;19.05
76007;BMP280;64699;0.000;0.000;2024-01-07T05:02:37;100675.47;;;19.05
76007;BMP280;64699;0.000;0.000;2024-01-07T05:05:02;100673.22;;;19.04
76007;BMP280;64699;0.000;0.000;2024-01-07T05:07:27;100670.16;;;19.07
76007;BMP280;64699;0.000;0.000;2024-01-07T05:09:53;100677.47;;;19.05
76007;BMP280;64699;0.000;0.000;2024-01-07T05:12:18;100680.97;;;19.05
76007;BMP280;64699;0.000;0.000;2024-01-07T05:14:43;100678.22;;;19.05
76007;BMP280;64699;0.000;0.000;2024-01-07T05:17:09;100678.41;;;19.07
76007;BMP280;64699;0.000;0.000;2024-01-07T05:19:34;100684.13;;;19.09
76007;BMP280;64699;0.000;0.000;2024-01-07T05:22:00;100680.84;;;19.11
76007;BMP280;64699;0.000;0.000;2024-01-07T05:24:25;100677.59;;;19.12
76007;BMP280;64699;0.000;0.000;2024-01-07T05:26:51;100684.56;;;19.13
76007;BMP280;64699;0.000;0.000;2024-01-07T05:29:16;100693.03;;;19.15
76007;BMP280;64699;0.000;0.000;2024-01-07T05:31:41;100689.78;;;19.17
76007;BMP280;64699;0.000;0.000;2024-01-07T05:34:06;100689.00;;;19.16
76007;BMP280;64699;0.000;0.000;2024-01-07T05:36:32;100698.78;;;19.17
76007;BMP280;64699;0.000;0.000;2024-01-07T05:38:57;100700.78;;;19.17
76007;BMP280;64699;0.000;0.000;2024-01-07T05:41:22;100695.28;;;19.17
76007;BMP280;64699;0.000;0.000;2024-01-07T05:43:47;100703.03;;;19.18
76007;BMP280;64699;0.000;0.000;2024-01-07T05:46:13;100701.72;;;19.19
76007;BMP280;64699;0.000;0.000;2024-01-07T05:48:42;100698.78;;;19.17
76007;BMP280;64699;0.000;0.000;2024-01-07T05:51:08;100701.53;;;19.17
76007;BMP280;64699;0.000;0.000;2024-01-07T05:53:34;100698.25;;;19.18
76007;BMP280;64699;0.000;0.000;2024-01-07T05:55:59;100695.28;;;19.17
76007;BMP280;64699;0.000;0.000;2024-01-07T05:58:24;100707.06;;;19.17
76007;BMP280;64699;0.000;0.000;2024-01-07T06:00:50;100700.03;;;19.16
76007;BMP280;64699;0.000;0.000;2024-01-07T06:03:15;100700.03;;;19.16
76007;BMP280;64699;0.000;0.000;2024-01-07T06:05:40;100701.53;;;19.17
76007;BMP280;64699;0.000;0.000;2024-01-07T06:08:05;100700.03;;;19.16
76007;BMP280;64699;0.000;0.000;2024-01-07T06:10:31;100702.59;;;19.14
76007;BMP280;64699;0.000;0.000;2024-01-07T06:12:56;100702.06;;;19.16
76007;BMP280;64699;0.000;0.000;2024-01-07T06:15:21;100701.28;;;19.15
76007;BMP280;64699;0.000;0.000;2024-01-07T06:17:46;100710.31;;;19.16
76007;BMP280;64699;0.000;0.000;2024-01-07T06:20:13;100705.53;;;19.16
76007;BMP280;64699;0.000;0.000;2024-01-07T06:22:39;100702.78;;;19.16
76007;BMP280;64699;0.000;0.000;2024-01-07T06:25:04;100712.03;;;19.18
76007;BMP280;64699;0.000;0.000;2024-01-07T06:27:29;100715.22;;;19.22
76007;BMP280;64699;0.000;0.000;2024-01-07T06:29:54;100728.44;;;19.24
76007;BMP280;64699;0.000;0.000;2024-01-07T06:32:20;100722.91;;;19.24
76007;BMP280;64699;0.000;0.000;2024-01-07T06:34:45;100728.13;;;19.27
76007;BMP280;64699;0.000;0.000;2024-01-07T06:37:11;100727.81;;;19.31
76007;BMP280;64699;0.000;0.000;2024-01-07T06:39:36;100733.34;;;19.31
76007;BMP280;64699;0.000;0.000;2024-01-07T06:42:02;100735.03;;;19.34
76007;BMP280;64699;0.000;0.000;2024-01-07T06:44:28;100738.00;;;19.36
76007;BMP280;64699;0.000;0.000;2024-01-07T06:46:53;100738.22;;;19.38
76007;BMP280;64699;0.000;0.000;2024-01-07T06:49:18;100739.69;;;19.39
76007;BMP280;64699;0.000;0.000;2024-01-07T06:51:43;100735.66;;;19.40
76007;BMP280;64699;0.000;0.000;2024-01-07T06:54:08;100743.63;;;19.43
76007;BMP280;64699;0.000;0.000;2024-01-07T06:56:34;100737.78;;;19.47
76007;BMP280;64699;0.000;0.000;2024-01-07T06:58:59;100743.28;;;19.47
76007;BMP280;64699;0.000;0.000;2024-01-07T07:01:25;100745.00;;;19.50
76007;BMP280;64699;0.000;0.000;2024-01-07T07:03:50;100739.50;;;19.50
76007;BMP280;64699;0.000;0.000;2024-01-07T07:06:15;100745.41;;;19.54
76007;BMP280;64699;0.000;0.000;2024-01-07T07:08:41;100748.94;;;19.54
76007;BMP280;64699;0.000;0.000;2024-01-07T07:11:06;100750.19;;;19.53
76007;BMP280;64699;0.000;0.000;2024-01-07T07:13:31;100744.16;;;19.55
76007;BMP280;64699;0.000;0.000;2024-01-07T07:15:56;100756.16;;;19.57
76007;BMP280;64699;0.000;0.000;2024-01-07T07:18:22;100748.63;;;19.58
76007;BMP280;64699;0.000;0.000;2024-01-07T07:20:47;100750.63;;;19.57
76007;BMP280;64699;0.000;0.000;2024-01-07T07:23:14;100756.59;;;19.61
76007;BMP280;64699;0.000;0.000;2024-01-07T07:25:39;100751.25;;;19.63
76007;BMP280;64699;0.000;0.000;2024-01-07T07:28:04;100764.28;;;19.63
76007;BMP280;64699;0.000;0.000;2024-01-07T07:30:30;100765.56;;;19.62
76007;BMP280;64699;0.000;0.000;2024-01-07T07:32:55;100769.81;;;19.63
76007;BMP280;64699;0.000;0.000;2024-01-07T07:35:20;100772.56;;;19.63
76007;BMP280;64699;0.000;0.000;2024-01-07T07:37:45;100771.81;;;19.62
76007;BMP280;64699;0.000;0.000;2024-01-07T07:40:11;100768.31;;;19.62
76007;BMP280;64699;0.000;0.000;2024-01-07T07:42:38;100774.06;;;19.64
76007;BMP280;64699;0.000;0.000;2024-01-07T07:45:03;100778.31;;;19.65
76007;BMP280;64699;0.000;0.000;2024-01-07T07:47:28;100777.03;;;19.66
76007;BMP280;64699;0.000;0.000;2024-01-07T07:49:54;100779.25;;;19.67
76007;BMP280;64699;0.000;0.000;2024-01-07T07:52:19;100771.72;;;19.68
76007;BMP280;64699;0.000;0.000;2024-01-07T07:54:47;100782.13;;;19.75
76007;BMP280;64699;0.000;0.000;2024-01-07T07:57:12;100781.50;;;19.69
76007;BMP280;64699;0.000;0.000;2024-01-07T07:59:37;100778.72;;;19.69
76007;BMP280;64699;0.000;0.000;2024-01-07T08:02:03;100785.19;;;19.71
76007;BMP280;64699;0.000;0.000;2024-01-07T08:04:28;100784.44;;;19.71
76007;BMP280;64699;0.000;0.000;2024-01-07T08:06:53;100784.69;;;19.73
76007;BMP280;64699;0.000;0.000;2024-01-07T08:09:21;100790.19;;;19.73
76007;BMP280;64699;0.000;0.000;2024-01-07T08:11:46;100784.69;;;19.73
76007;BMP280;64699;0.000;0.000;2024-01-07T08:14:11;100800.91;;;19.76
76007;BMP280;64699;0.000;0.000;2024-01-07T08:16:36;100805.47;;;19.74
76007;BMP280;64699;0.000;0.000;2024-01-07T08:19:01;100800.16;;;19.76
76007;BMP280;64699;0.000;0.000;2024-01-07T08:21:27;100804.16;;;19.75
76007;BMP280;64699;0.000;0.000;2024-01-07T08:23:52;100808.41;;;19.76
76007;BMP280;64699;0.000;0.000;2024-01-07T08:26:21;100811.94;;;19.76
76007;BMP280;64699;0.000;0.000;2024-01-07T08:28:46;100811.94;;;19.76
76007;BMP280;64699;0.000;0.000;2024-01-07T08:31:11;100818.72;;;19.75
76007;BMP280;64699;0.000;0.000;2024-01-07T08:33:36;100819.66;;;19.78
76007;BMP280;64699;0.000;0.000;2024-01-07T08:36:01;100821.16;;;19.79
76007;BMP280;64699;0.000;0.000;2024-01-07T08:38:27;100824.84;;;19.81
76007;BMP280;64699;0.000;0.000;2024-01-07T08:40:52;100821.16;;;19.79
76007;BMP280;64699;0.000;0.000;2024-01-07T08:43:17;100813.59;;;19.79
76007;BMP280;64699;0.000;0.000;2024-01-07T08:45:42;100820.59;;;19.80
76007;BMP280;64699;0.000;0.000;2024-01-07T08:48:08;100820.41;;;19.78
76007;BMP280;64699;0.000;0.000;2024-01-07T08:50:33;100829.63;;;19.81
76007;BMP280;64699;0.000;0.000;2024-01-07T08:52:58;100824.63;;;19.79
76007;BMP280;64699;0.000;0.000;2024-01-07T08:55:23;100821.38;;;19.81
76007;BMP280;64699;0.000;0.000;2024-01-07T08:57:48;100829.63;;;19.81
76007;BMP280;64699;0.000;0.000;2024-01-07T09:00:14;100820.41;;;19.78
76007;BMP280;64699;0.000;0.000;2024-01-07T09:02:40;100825.19;;;19.78
76007;BMP280;64699;0.000;0.000;2024-01-07T09:05:05;100834.00;;;19.76
76007;BMP280;64699;0.000;0.000;2024-01-07T09:07:30;100826.66;;;19.79
76007;BMP280;64699;0.000;0.000;2024-01-07T09:09:57;100837.69;;;19.79
76007;BMP280;64699;0.000;0.000;2024-01-07T09:12:24;100826.97;;;19.75
76007;BMP280;64699;0.000;0.000;2024-01-07T09:14:50;100835.97;;;19.76
76007;BMP280;64699;0.000;0.000;2024-01-07T09:17:15;100833.22;;;19.76
76007;BMP280;64699;0.000;0.000;2024-01-07T09:19:42;100842.75;;;19.75
76007;BMP280;64699;0.000;0.000;2024-01-07T09:22:07;100837.25;;;19.75
76007;BMP280;64699;0.000;0.000;2024-01-07T09:24:32;100841.31;;;19.74
76007;BMP280;64699;0.000;0.000;2024-01-07T09:26:57;100833.03;;;19.74
76007;BMP280;64699;0.000;0.000;2024-01-07T09:29:23;100827.28;;;19.72
76007;BMP280;64699;0.000;0.000;2024-01-07T09:31:48;100811.50;;;19.72
76007;BMP280;64699;0.000;0.000;2024-01-07T09:34:13;100819.53;;;19.70
76007;BMP280;64699;0.000;0.000;2024-01-07T09:36:39;100821.78;;;19.72
76007;BMP280;64699;0.000;0.000;2024-01-07T09:39:05;100825.78;;;19.71
76007;BMP280;64699;0.000;0.000;2024-01-07T09:41:31;100821.03;;;19.71
76007;BMP280;64699;0.000;0.000;2024-01-07T09:43:57;100817.50;;;19.71
76007;BMP280;64699;0.000;0.000;2024-01-07T09:46:24;100827.63;;;19.68
76007;BMP280;64699;0.000;0.000;2024-01-07T09:48:49;100819.84;;;19.67
76007;BMP280;64699;0.000;0.000;2024-01-07T09:51:14;100822.63;;;19.67
76007;BMP280;64699;0.000;0.000;2024-01-07T09:53:40;100819.66;;;19.65
76007;BMP280;64699;0.000;0.000;2024-01-07T09:58:33;100825.91;;;19.65
76007;BMP280;64699;0.000;0.000;2024-01-07T10:00:58;100824.19;;;19.62
76007;BMP280;64699;0.000;0.000;2024-01-07T10:03:24;100813.91;;;19.63
76007;BMP280;64699;0.000;0.000;2024-01-07T10:05:49;100825.50;;;19.61
76007;BMP280;64699;0.000;0.000;2024-01-07T10:08:14;100827.50;;;19.61
76007;BMP280;64699;0.000;0.000;2024-01-07T10:10:40;100828.25;;;19.61
76007;BMP280;64699;0.000;0.000;2024-01-07T10:13:06;100823.75;;;19.58
76007;BMP280;64699;0.000;0.000;2024-01-07T10:15:31;100823.75;;;19.58
76007;BMP280;64699;0.000;0.000;2024-01-07T10:18:06;100821.00;;;19.58
76007;BMP280;64699;0.000;0.000;2024-01-07T10:20:32;100820.28;;;19.58
76007;BMP280;64699;0.000;0.000;2024-01-07T10:22:58;100826.31;;;19.56
76007;BMP280;64699;0.000;0.000;2024-01-07T10:25:24;100820.81;;;19.56
76007;BMP280;64699;0.000;0.000;2024-01-07T10:27:49;100818.56;;;19.55
76007;BMP280;64699;0.000;0.000;2024-01-07T10:30:15;100809.38;;;19.52
76007;BMP280;64699;0.000;0.000;2024-01-07T10:32:41;100819.81;;;19.54
76007;BMP280;64699;0.000;0.000;2024-01-07T10:35:07;100814.13;;;19.52
76007;BMP280;64699;0.000;0.000;2024-01-07T10:37:34;100810.84;;;19.53
76007;BMP280;64699;0.000;0.000;2024-01-07T10:40:00;100815.63;;;19.53
76007;BMP280;64699;0.000;0.000;2024-01-07T10:42:31;100807.34;;;19.53
76007;BMP280;64699;0.000;0.000;2024-01-07T10:44:58;100818.16;;;19.51
76007;BMP280;64699;0.000;0.000;2024-01-07T10:47:24;100808.81;;;19.54
76007;BMP280;64699;0.000;0.000;2024-01-07T10:49:50;100824.06;;;19.55
76007;BMP280;64699;0.000;0.000;2024-01-07T10:52:16;100809.56;;;19.54
76007;BMP280;64699;0.000;0.000;2024-01-07T10:54:41;100812.31;;;19.54
76007;BMP280;64699;0.000;0.000;2024-01-07T10:59:33;100809.06;;;19.56
76007;BMP280;64699;0.000;0.000;2024-01-07T11:01:58;100816.78;;;19.57
76007;BMP280;64699;0.000;0.000;2024-01-07T11:04:29;100813.50;;;19.59
76007;BMP280;64699;0.000;0.000;2024-01-07T11:09:43;100816.47;;;19.61
76007;BMP280;64699;0.000;0.000;2024-01-07T11:12:14;100826.19;;;19.62
76007;BMP280;64699;0.000;0.000;2024-01-07T11:14:40;100821.44;;;19.62
76007;BMP280;64699;0.000;0.000;2024-01-07T11:17:08;100820.94;;;19.64
76007;BMP280;64699;0.000;0.000;2024-01-07T11:19:37;100821.66;;;19.64
76007;BMP280;64699;0.000;0.000;2024-01-07T11:22:22;100823.69;;;19.64
76007;BMP280;64699;0.000;0.000;2024-01-07T11:24:56;100826.44;;;19.64
76007;BMP280;64699;0.000;0.000;2024-01-07T11:27:22;100816.66;;;19.63
76007;BMP280;64699;0.000;0.000;2024-01-07T11:32:21;100818.69;;;19.62
76007;BMP280;64699;0.000;0.000;2024-01-07T11:34:46;100820.19;;;19.63
76007;BMP280;64699;0.000;0.000;2024-01-07T11:37:14;100826.19;;;19.62
76007;BMP280;64699;0.000;0.000;2024-01-07T11:39:43;100823.44;;;19.62
76007;BMP280;64699;0.000;0.000;2024-01-07T11:42:09;100813.16;;;19.62
76007;BMP280;64699;0.000;0.000;2024-01-07T11:44:34;100807.16;;;19.64
76007;BMP280;64699;0.000;0.000;2024-01-07T11:47:02;100817.22;;;19.61
76007;BMP280;64699;0.000;0.000;2024-01-07T11:49:27;100813.50;;;19.59
76007;BMP280;64699;0.000;0.000;2024-01-07T11:51:52;100816.06;;;19.57
76007;BMP280;64699;0.000;0.000;2024-01-07T11:54:17;100814.75;;;19.58
76007;BMP280;64699;0.000;0.000;2024-01-07T11:56:43;100814.75;;;19.58
76007;BMP280;64699;0.000;0.000;2024-01-07T11:59:08;100808.72;;;19.59
76007;BMP280;64699;0.000;0.000;2024-01-07T12:01:33;100819.00;;;19.59
76007;BMP280;64699;0.000;0.000;2024-01-07T12:03:58;100817.31;;;19.56
76007;BMP280;64699;0.000;0.000;2024-01-07T12:06:23;100814.03;;;19.57
76007;BMP280;64699;0.000;0.000;2024-01-07T12:08:49;100818.81;;;19.57
76007;BMP280;64699;0.000;0.000;2024-01-07T12:11:15;100817.31;;;19.56
76007;BMP280;64699;0.000;0.000;2024-01-07T12:13:41;100820.59;;;19.54
76007;BMP280;64699;0.000;0.000;2024-01-07T12:16:07;100829.59;;;19.55
76007;BMP280;64699;0.000;0.000;2024-01-07T12:18:32;100824.84;;;19.55
76007;BMP280;64699;0.000;0.000;2024-01-07T12:20:58;100834.19;;;19.52
76007;BMP280;64699;0.000;0.000;2024-01-07T12:23:24;100836.94;;;19.52
76007;BMP280;64699;0.000;0.000;2024-01-07T12:25:50;100845.94;;;19.53
76007;BMP280;64699;0.000;0.000;2024-01-07T12:28:16;100831.41;;;19.52
76007;BMP280;64699;0.000;0.000;2024-01-07T12:30:41;100834.69;;;19.51
76007;BMP280;64699;0.000;0.000;2024-01-07T12:33:07;100845.72;;;19.51
76007;BMP280;64699;0.000;0.000;2024-01-07T12:35:32;100844.22;;;19.50
76007;BMP280;64699;0.000;0.000;2024-01-07T12:37:59;100835.94;;;19.50
76007;BMP280;64699;0.000;0.000;2024-01-07T12:40:24;100841.69;;;19.52
76007;BMP280;64699;0.000;0.000;2024-01-07T12:42:51;100835.41;;;19.51
76007;BMP280;64699;0.000;0.000;2024-01-07T12:45:17;100842.44;;;19.52
76007;BMP280;64699;0.000;0.000;2024-01-07T12:47:42;100849.94;;;19.52
76007;BMP280;64699;0.000;0.000;2024-01-07T12:50:08;100846.38;;;19.57
76007;BMP280;64699;0.000;0.000;2024-01-07T12:52:39;100856.09;;;19.58
76007;BMP280;64699;0.000;0.000;2024-01-07T12:55:05;100855.06;;;19.61
76007;BMP280;64699;0.000;0.000;2024-01-07T12:57:31;100852.50;;;19.63
76007;BMP280;64699;0.000;0.000;2024-01-07T12:59:56;100845.75;;;19.64
76007;BMP280;64699;0.000;0.000;2024-01-07T13:02:22;100853.47;;;19.65
76007;BMP280;64699;0.000;0.000;2024-01-07T13:04:47;100852.44;;;19.68
76007;BMP280;64699;0.000;0.000;2024-01-07T13:07:12;100851.88;;;19.70
76007;BMP280;64699;0.000;0.000;2024-01-07T13:09:37;100851.56;;;19.73
76007;BMP280;64699;0.000;0.000;2024-01-07T13:12:02;100856.34;;;19.73
76007;BMP280;64699;0.000;0.000;2024-01-07T13:14:29;100854.34;;;19.73
76007;BMP280;64699;0.000;0.000;2024-01-07T13:16:54;100846.59;;;19.72
76007;BMP280;64699;0.000;0.000;2024-01-07T13:19:19;100855.09;;;19.74
76007;BMP280;64699;0.000;0.000;2024-01-07T13:21:45;100860.59;;;19.74
76007;BMP280;64699;0.000;0.000;2024-01-07T13:24:10;100864.06;;;19.74
76007;BMP280;64699;0.000;0.000;2024-01-07T13:26:36;100858.56;;;19.74
76007;BMP280;64699;0.000;0.000;2024-01-07T13:29:01;100860.59;;;19.74
76007;BMP280;64699;0.000;0.000;2024-01-07T13:31:27;100860.06;;;19.75
76007;BMP280;64699;0.000;0.000;2024-01-07T13:33:52;100864.81;;;19.75
76007;BMP280;64699;0.000;0.000;2024-01-07T13:36:17;100873.09;;;19.75
76007;BMP280;64699;0.000;0.000;2024-01-07T13:38:43;100867.38;;;19.73
76007;BMP280;64699;0.000;0.000;2024-01-07T13:41:08;100872.91;;;19.73
76007;BMP280;64699;0.000;0.000;2024-01-07T13:43:33;100872.91;;;19.73
76007;BMP280;64699;0.000;0.000;2024-01-07T13:45:59;100872.91;;;19.73
76007;BMP280;64699;0.000;0.000;2024-01-07T13:48:24;100871.41;;;19.72
76007;BMP280;64699;0.000;0.000;2024-01-07T13:50:50;100878.56;;;19.62
76007;BMP280;64699;0.000;0.000;2024-01-07T13:53:16;100880.59;;;19.48
76007;BMP280;64699;0.000;0.000;2024-01-07T13:55:42;100881.06;;;19.34
76007;BMP280;64699;0.000;0.000;2024-01-07T13:58:07;100882.28;;;19.20
76007;BMP280;64699;0.000;0.000;2024-01-07T14:00:32;100878.69;;;19.25
76007;BMP280;64699;0.000;0.000;2024-01-07T14:02:57;100878.53;;;19.36
76007;BMP280;64699;0.000;0.000;2024-01-07T14:05:23;100886.81;;;19.49
76007;BMP280;64699;0.000;0.000;2024-01-07T14:07:48;100885.78;;;19.52
76007;BMP280;64699;0.000;0.000;2024-01-07T14:10:13;100899.09;;;19.35